Time;durP1;ratioP1;P1;durP2;ratioP2;P2;SDS_P1;SDS_P2;PMS_P1;PMS_P2;Temp;Humidity;BMP_temperature;BMP_pressure;BME280_temperature;BME280_humidity;BME280_pressure;Samples;Min_cycle;Max_cycle;Signal;HPM_P1;HPM_P2
2023/03/07 00:02:54;;;;;;;5.20;3.47;;;;;;;;;;6283063;28;20482;-75
2023/03/07 00:06:03;;;;;;;7.90;4.33;;;;;;;;;;6283294;28;20606;-76
2023/03/07 00:09:09;;;;;;;10.17;4.10;;;;;;;;;;6281887;28;20306;-76
2023/03/07 00:12:16;;;;;;;8.70;3.93;;;;;;;;;;6281931;28;20302;-75
2023/03/07 00:15:21;;;;;;;4.43;3.97;;;;;;;;;;6282737;28;20507;-75
2023/03/07 00:18:28;;;;;;;5.23;3.93;;;;;;;;;;6281894;28;20291;-75
2023/03/07 00:21:34;;;;;;;6.73;4.50;;;;;;;;;;6283509;28;20293;-75
2023/03/07 00:24:45;;;;;;;5.23;4.73;;;;;;;;;;6305078;28;20331;-75
2023/03/07 00:27:52;;;;;;;12.33;5.40;;;;;;;;;;6282797;28;20451;-75
2023/03/07 00:31:02;;;;;;;9.37;4.77;;;;;;;;;;6283091;28;20310;-75
2023/03/07 00:34:07;;;;;;;8.97;5.50;;;;;;;;;;6281842;28;20294;-75
2023/03/07 00:37:13;;;;;;;8.53;5.57;;;;;;;;;;6282048;28;20346;-75
2023/03/07 00:40:19;;;;;;;7.77;5.90;;;;;;;;;;6282878;28;20341;-76
2023/03/07 00:43:25;;;;;;;9.13;5.80;;;;;;;;;;6281362;28;20585;-75
2023/03/07 00:46:31;;;;;;;15.80;5.47;;;;;;;;;;6287832;28;20297;-75
2023/03/07 00:49:36;;;;;;;10.37;5.63;;;;;;;;;;6286193;28;20324;-74
2023/03/07 00:52:43;;;;;;;9.93;5.53;;;;;;;;;;6319123;28;20288;-75
2023/03/07 00:55:56;;;;;;;8.07;5.27;;;;;;;;;;6286612;28;20293;-75
2023/03/07 00:59:05;;;;;;;7.73;5.27;;;;;;;;;;6269893;28;20301;-75
2023/03/07 01:02:11;;;;;;;8.07;5.57;;;;;;;;;;6270056;28;20390;-75
2023/03/07 01:05:16;;;;;;;12.47;5.70;;;;;;;;;;6287419;28;20295;-75
2023/03/07 01:08:22;;;;;;;11.00;6.43;;;;;;;;;;6285904;28;20298;-74
2023/03/07 01:11:29;;;;;;;12.80;5.70;;;;;;;;;;6286164;28;20293;-76
2023/03/07 01:14:35;;;;;;;8.17;5.80;;;;;;;;;;6285931;28;20387;-75
2023/03/07 01:17:41;;;;;;;13.37;5.67;;;;;;;;;;6285512;28;20308;-76
2023/03/07 01:20:46;;;;;;;9.20;5.27;;;;;;;;;;6287367;28;20581;-75
2023/03/07 01:23:52;;;;;;;7.13;5.60;;;;;;;;;;6284935;28;20325;-75
2023/03/07 01:26:57;;;;;;;7.47;5.33;;;;;;;;;;6287151;28;20319;-75
2023/03/07 01:30:04;;;;;;;6.47;5.30;;;;;;;;;;6318822;28;20304;-76
2023/03/07 01:33:12;;;;;;;7.97;5.50;;;;;;;;;;6317372;28;20615;-76
2023/03/07 01:36:19;;;;;;;6.10;5.23;;;;;;;;;;6285715;28;20294;-76
2023/03/07 01:39:25;;;;;;;8.37;5.33;;;;;;;;;;6286326;28;20305;-76
2023/03/07 01:42:35;;;;;;;5.97;5.33;;;;;;;;;;6284519;28;20305;-75
2023/03/07 01:46:23;;;;;;;12.00;5.60;;;;;;;;;;6268754;28;20480;-75
2023/03/07 01:49:34;;;;;;;6.47;4.93;;;;;;;;;;6317048;28;20301;-76
2023/03/07 01:52:43;;;;;;;9.07;4.93;;;;;;;;;;6284571;28;20286;-76
2023/03/07 01:55:48;;;;;;;5.87;4.90;;;;;;;;;;6285541;28;20290;-75
2023/03/07 01:58:56;;;;;;;9.77;5.60;;;;;;;;;;6284957;28;20291;-75
2023/03/07 02:02:06;;;;;;;9.13;5.27;;;;;;;;;;6299967;22;20314;-82
2023/03/07 02:05:15;;;;;;;5.90;4.50;;;;;;;;;;6228909;28;20318;-82
2023/03/07 02:08:24;;;;;;;5.90;4.83;;;;;;;;;;6224330;28;20306;-84
2023/03/07 02:11:30;;;;;;;5.50;5.00;;;;;;;;;;6233261;28;20297;-82
2023/03/07 02:14:35;;;;;;;5.93;4.90;;;;;;;;;;6260138;28;20348;-83
2023/03/07 02:17:41;;;;;;;10.70;5.30;;;;;;;;;;6261295;28;20301;-83
2023/03/07 02:20:56;;;;;;;5.23;4.73;;;;;;;;;;6245058;28;20302;-82
2023/03/07 02:24:07;;;;;;;5.00;4.60;;;;;;;;;;6225767;28;20306;-80
2023/03/07 02:27:14;;;;;;;7.63;4.90;;;;;;;;;;6231026;28;20291;-81
2023/03/07 02:30:20;;;;;;;7.37;4.70;;;;;;;;;;6214946;28;20550;-83
2023/03/07 02:33:29;;;;;;;6.47;5.07;;;;;;;;;;6218259;28;20307;-83
2023/03/07 02:36:38;;;;;;;9.77;4.57;;;;;;;;;;6230425;28;20530;-82
2023/03/07 02:39:55;;;;;;;8.07;5.20;;;;;;;;;;6235777;28;20301;-83
2023/03/07 02:43:08;;;;;;;9.03;5.20;;;;;;;;;;6215204;28;20475;-82
2023/03/07 02:46:16;;;;;;;8.20;4.57;;;;;;;;;;6237226;28;20331;-83
2023/03/07 02:49:21;;;;;;;5.17;4.67;;;;;;;;;;6218752;28;20294;-82
2023/03/07 02:52:28;;;;;;;9.23;4.70;;;;;;;;;;6234219;28;20274;-83
2023/03/07 02:55:34;;;;;;;7.83;4.07;;;;;;;;;;6211809;28;20514;-82
2023/03/07 02:58:43;;;;;;;4.20;3.90;;;;;;;;;;6232167;28;20291;-83
2023/03/07 03:01:48;;;;;;;8.50;4.07;;;;;;;;;;6214345;28;20309;-83
2023/03/07 03:04:54;;;;;;;6.93;3.70;;;;;;;;;;6230017;28;20454;-82
2023/03/07 03:08:00;;;;;;;6.70;3.93;;;;;;;;;;6209740;28;20300;-83
2023/03/07 03:11:07;;;;;;;6.27;3.97;;;;;;;;;;6226898;28;20305;-82
2023/03/07 03:14:15;;;;;;;5.00;4.23;;;;;;;;;;6260068;28;20300;-81
2023/03/07 03:17:22;;;;;;;5.33;3.97;;;;;;;;;;6251845;28;20298;-81
2023/03/07 03:20:28;;;;;;;4.80;3.80;;;;;;;;;;6259609;28;20301;-82
2023/03/07 03:23:33;;;;;;;11.30;4.40;;;;;;;;;;6259798;28;20293;-82
2023/03/07 03:26:38;;;;;;;6.30;4.20;;;;;;;;;;6260864;28;20302;-82
2023/03/07 03:29:46;;;;;;;10.03;4.20;;;;;;;;;;6261143;28;20504;-82
2023/03/07 03:32:51;;;;;;;7.97;4.00;;;;;;;;;;6257978;28;20291;-83
2023/03/07 03:35:57;;;;;;;11.73;4.03;;;;;;;;;;6258177;28;20302;-82
2023/03/07 03:39:05;;;;;;;8.37;4.40;;;;;;;;;;6258088;28;20317;-83
2023/03/07 03:42:11;;;;;;;9.97;4.70;;;;;;;;;;6258993;28;20301;-83
2023/03/07 03:45:18;;;;;;;10.03;4.43;;;;;;;;;;6259712;28;20301;-82
2023/03/07 03:48:23;;;;;;;8.60;4.53;;;;;;;;;;6241972;28;20299;-81
2023/03/07 03:51:29;;;;;;;7.23;3.83;;;;;;;;;;6259705;28;20306;-82
2023/03/07 03:54:35;;;;;;;9.17;4.03;;;;;;;;;;6257888;28;20295;-83
2023/03/07 03:57:40;;;;;;;6.20;4.13;;;;;;;;;;6241710;28;20302;-82
2023/03/07 04:00:47;;;;;;;7.10;4.23;;;;;;;;;;6258600;28;20297;-82
2023/03/07 04:03:53;;;;;;;8.00;4.27;;;;;;;;;;6246395;28;20335;-82
2023/03/07 04:06:59;;;;;;;4.23;3.83;;;;;;;;;;6241491;28;20313;-82
2023/03/07 04:10:05;;;;;;;5.03;3.80;;;;;;;;;;6256905;28;20306;-83
2023/03/07 04:13:13;;;;;;;4.33;3.83;;;;;;;;;;6257482;28;20389;-81
2023/03/07 04:16:22;;;;;;;9.03;4.63;;;;;;;;;;6258231;28;20300;-83
2023/03/07 04:19:27;;;;;;;4.77;3.80;;;;;;;;;;6247877;28;20293;-83
2023/03/07 04:22:35;;;;;;;3.73;3.47;;;;;;;;;;6231697;28;20563;-82
2023/03/07 04:25:40;;;;;;;3.90;3.60;;;;;;;;;;6205919;28;20296;-82
2023/03/07 04:28:45;;;;;;;5.67;3.60;;;;;;;;;;6231885;28;20291;-82
2023/03/07 04:31:56;;;;;;;4.97;3.80;;;;;;;;;;6229972;28;20451;-82
2023/03/07 04:35:01;;;;;;;5.67;3.67;;;;;;;;;;6215984;28;20468;-82
2023/03/07 04:38:07;;;;;;;3.83;3.50;;;;;;;;;;6258373;28;20431;-83
2023/03/07 04:41:14;;;;;;;6.00;3.67;;;;;;;;;;6258109;28;20312;-82
2023/03/07 04:44:20;;;;;;;6.33;3.87;;;;;;;;;;6257217;28;20292;-81
2023/03/07 04:47:28;;;;;;;5.43;3.80;;;;;;;;;;6257413;28;20287;-82
2023/03/07 04:50:34;;;;;;;5.17;4.07;;;;;;;;;;6255909;28;20308;-81
2023/03/07 04:53:41;;;;;;;5.43;3.87;;;;;;;;;;6256877;28;20303;-81
2023/03/07 04:56:46;;;;;;;3.80;3.47;;;;;;;;;;6257397;28;20292;-82
2023/03/07 04:59:52;;;;;;;4.10;3.47;;;;;;;;;;6256978;28;20298;-83
2023/03/07 05:03:01;;;;;;;11.03;3.90;;;;;;;;;;6256410;28;20323;-82
2023/03/07 05:06:11;;;;;;;5.90;3.63;;;;;;;;;;6225435;28;20304;-84
2023/03/07 05:09:17;;;;;;;7.53;4.00;;;;;;;;;;6256921;28;20300;-82
2023/03/07 05:12:22;;;;;;;8.00;4.10;;;;;;;;;;6254183;28;20292;-82
2023/03/07 05:15:29;;;;;;;3.90;3.60;;;;;;;;;;6256660;28;20460;-81
2023/03/07 05:18:35;;;;;;;4.00;3.70;;;;;;;;;;6256644;28;20576;-82
2023/03/07 05:21:42;;;;;;;5.20;3.70;;;;;;;;;;6257779;28;20481;-82
2023/03/07 05:24:49;;;;;;;4.70;3.90;;;;;;;;;;6241140;28;20370;-82
2023/03/07 05:27:55;;;;;;;6.70;3.70;;;;;;;;;;6241017;28;20311;-82
2023/03/07 05:31:00;;;;;;;4.90;4.00;;;;;;;;;;6259545;28;20383;-82
2023/03/07 05:34:12;;;;;;;4.40;3.60;;;;;;;;;;6261669;28;20310;-83
2023/03/07 05:37:20;;;;;;;4.10;3.80;;;;;;;;;;6263626;28;20297;-82
2023/03/07 05:40:26;;;;;;;4.27;3.87;;;;;;;;;;6262646;28;20489;-83
2023/03/07 05:43:31;;;;;;;3.73;3.40;;;;;;;;;;6261841;28;20403;-83
2023/03/07 05:46:39;;;;;;;6.07;3.73;;;;;;;;;;6263849;28;20268;-82
2023/03/07 05:49:47;;;;;;;3.37;3.03;;;;;;;;;;6262560;28;20300;-82
2023/03/07 05:52:54;;;;;;;8.47;3.43;;;;;;;;;;6262175;28;20300;-82
2023/03/07 05:56:02;;;;;;;6.30;2.87;;;;;;;;;;6261266;28;20291;-83
2023/03/07 05:59:11;;;;;;;3.13;2.83;;;;;;;;;;6245081;28;20576;-82
2023/03/07 06:02:17;;;;;;;4.97;2.40;;;;;;;;;;6261674;28;20388;-82
2023/03/07 06:05:24;;;;;;;2.30;2.20;;;;;;;;;;6261327;28;20300;-81
2023/03/07 06:08:31;;;;;;;3.37;2.40;;;;;;;;;;6261282;28;20573;-81
2023/03/07 06:11:38;;;;;;;2.50;2.20;;;;;;;;;;6259170;28;20297;-83
2023/03/07 06:14:43;;;;;;;2.70;2.60;;;;;;;;;;6254701;28;20300;-83
2023/03/07 06:17:49;;;;;;;2.40;2.40;;;;;;;;;;6262475;28;20297;-83
2023/03/07 06:20:57;;;;;;;6.50;2.53;;;;;;;;;;6261722;28;20315;-85
2023/03/07 06:24:07;;;;;;;3.10;2.80;;;;;;;;;;6260846;28;20301;-82
2023/03/07 06:27:12;;;;;;;2.73;2.53;;;;;;;;;;6260545;28;20302;-82
2023/03/07 06:30:18;;;;;;;7.83;2.40;;;;;;;;;;6260174;28;20308;-82
2023/03/07 06:33:23;;;;;;;2.60;2.40;;;;;;;;;;6259866;28;20289;-83
2023/03/07 06:36:30;;;;;;;4.73;2.30;;;;;;;;;;6260822;28;20303;-81
2023/03/07 06:39:40;;;;;;;2.60;2.30;;;;;;;;;;6260383;28;20304;-83
2023/03/07 06:42:47;;;;;;;2.33;2.13;;;;;;;;;;6262049;28;20571;-82
2023/03/07 06:45:53;;;;;;;2.83;2.33;;;;;;;;;;6263838;28;20333;-81
2023/03/07 06:49:01;;;;;;;2.50;2.40;;;;;;;;;;6264591;28;20289;-82
2023/03/07 06:52:08;;;;;;;2.57;2.37;;;;;;;;;;6259610;28;20295;-83
2023/03/07 06:55:14;;;;;;;5.57;2.13;;;;;;;;;;6259588;28;20294;-82
2023/03/07 06:58:19;;;;;;;2.10;2.00;;;;;;;;;;6260599;28;20297;-83
2023/03/07 07:01:25;;;;;;;2.27;2.07;;;;;;;;;;6259408;28;20285;-85
2023/03/07 07:04:33;;;;;;;2.00;2.00;;;;;;;;;;6247701;28;20305;-83
2023/03/07 07:07:40;;;;;;;2.57;1.97;;;;;;;;;;6260930;28;20288;-84
2023/03/07 07:10:47;;;;;;;2.10;1.67;;;;;;;;;;6245732;28;20295;-82
2023/03/07 07:13:52;;;;;;;4.27;2.17;;;;;;;;;;6216107;28;20293;-82
2023/03/07 07:16:58;;;;;;;6.97;2.10;;;;;;;;;;6230724;28;20321;-84
2023/03/07 07:20:05;;;;;;;8.30;2.70;;;;;;;;;;6216251;28;20294;-82
2023/03/07 07:23:12;;;;;;;4.33;2.20;;;;;;;;;;6233634;28;20303;-81
2023/03/07 07:26:20;;;;;;;2.37;2.20;;;;;;;;;;6236615;28;20294;-84
2023/03/07 07:29:26;;;;;;;2.90;2.07;;;;;;;;;;6229858;28;20305;-84
2023/03/07 07:32:31;;;;;;;3.33;2.60;;;;;;;;;;6219900;28;20616;-84
2023/03/07 07:35:39;;;;;;;7.43;2.40;;;;;;;;;;6235981;28;20601;-83
2023/03/07 07:38:45;;;;;;;4.23;2.10;;;;;;;;;;6234171;28;20299;-84
2023/03/07 07:41:51;;;;;;;2.53;2.00;;;;;;;;;;6234581;28;20325;-83
2023/03/07 07:44:59;;;;;;;4.43;2.07;;;;;;;;;;6234451;28;20487;-83
2023/03/07 07:48:04;;;;;;;3.30;1.97;;;;;;;;;;6231279;28;20566;-83
2023/03/07 07:51:11;;;;;;;3.83;1.47;;;;;;;;;;6224865;28;20303;-81
2023/03/07 07:54:19;;;;;;;1.43;1.40;;;;;;;;;;6232388;28;20308;-83
2023/03/07 07:57:26;;;;;;;3.57;1.57;;;;;;;;;;6235188;28;20299;-84
2023/03/07 08:00:34;;;;;;;1.47;1.47;;;;;;;;;;6217166;28;20300;-85
2023/03/07 08:03:44;;;;;;;1.20;1.20;;;;;;;;;;6228220;28;20295;-83
2023/03/07 08:06:49;;;;;;;5.50;1.30;;;;;;;;;;6233701;28;20312;-81
2023/03/07 08:09:59;;;;;;;1.50;1.50;;;;;;;;;;6234581;28;20494;-80
2023/03/07 08:13:04;;;;;;;1.83;1.70;;;;;;;;;;6258953;28;20297;-79
2023/03/07 08:16:13;;;;;;;1.50;1.50;;;;;;;;;;6281807;28;20433;-85
2023/03/07 08:19:19;;;;;;;2.97;1.37;;;;;;;;;;6258510;28;20624;-83
2023/03/07 08:22:25;;;;;;;1.63;1.50;;;;;;;;;;6234115;28;20335;-83
2023/03/07 08:25:31;;;;;;;1.10;1.10;;;;;;;;;;6258048;28;20335;-83
2023/03/07 08:28:37;;;;;;;1.33;1.33;;;;;;;;;;6258890;28;20296;-83
2023/03/07 08:31:44;;;;;;;1.33;1.33;;;;;;;;;;6259440;28;20315;-84
2023/03/07 08:34:50;;;;;;;1.00;1.00;;;;;;;;;;6259290;28;20592;-83
2023/03/07 08:37:56;;;;;;;1.40;1.40;;;;;;;;;;6258817;28;20285;-84
2023/03/07 08:41:05;;;;;;;2.20;1.30;;;;;;;;;;6260006;28;20296;-83
2023/03/07 08:44:14;;;;;;;5.17;1.40;;;;;;;;;;6259111;28;20304;-83
2023/03/07 08:47:20;;;;;;;5.87;1.10;;;;;;;;;;6259100;28;20297;-83
2023/03/07 08:50:30;;;;;;;1.10;1.10;;;;;;;;;;6258346;28;20487;-82
2023/03/07 08:53:36;;;;;;;1.37;1.20;;;;;;;;;;6260483;28;20300;-82
2023/03/07 08:56:43;;;;;;;1.27;1.27;;;;;;;;;;6260238;28;20293;-84
2023/03/07 08:59:48;;;;;;;1.23;1.23;;;;;;;;;;6259431;28;20296;-83
2023/03/07 09:02:57;;;;;;;1.23;1.23;;;;;;;;;;6255543;28;20309;-83
2023/03/07 09:06:07;;;;;;;1.83;1.30;;;;;;;;;;6261225;28;20692;-82
2023/03/07 09:09:12;;;;;;;1.20;1.20;;;;;;;;;;6263332;28;20297;-83
2023/03/07 09:12:19;;;;;;;1.10;0.90;;;;;;;;;;6258244;28;20293;-83
2023/03/07 09:15:24;;;;;;;3.70;1.10;;;;;;;;;;6263092;28;20560;-84
2023/03/07 09:18:30;;;;;;;3.37;1.00;;;;;;;;;;6261438;28;20297;-83
2023/03/07 09:21:35;;;;;;;2.73;0.90;;;;;;;;;;6263626;28;20297;-82
2023/03/07 09:24:40;;;;;;;0.90;0.90;;;;;;;;;;6263069;28;20302;-82
2023/03/07 09:27:47;;;;;;;0.80;0.80;;;;;;;;;;6263398;28;20293;-84
2023/03/07 09:30:56;;;;;;;1.00;1.00;;;;;;;;;;6262713;28;20296;-84
2023/03/07 09:34:01;;;;;;;1.70;1.00;;;;;;;;;;6264125;28;20305;-82
2023/03/07 09:37:06;;;;;;;1.07;1.00;;;;;;;;;;6261853;28;20369;-82
2023/03/07 09:40:17;;;;;;;0.93;0.87;;;;;;;;;;6260099;28;20301;-82
2023/03/07 09:43:27;;;;;;;3.83;0.87;;;;;;;;;;6261467;28;20567;-84
2023/03/07 09:47:14;;;;;;;1.40;0.87;;;;;;;;;;6263306;28;20296;-82
2023/03/07 09:50:25;;;;;;;1.67;0.90;;;;;;;;;;6261717;28;20303;-84
2023/03/07 09:53:36;;;;;;;2.03;0.93;;;;;;;;;;6262684;28;20295;-82
2023/03/07 09:56:44;;;;;;;0.73;0.73;;;;;;;;;;6263205;28;20311;-84
2023/03/07 09:59:53;;;;;;;1.00;1.00;;;;;;;;;;6263030;28;20304;-82
2023/03/07 10:03:08;;;;;;;1.67;0.97;;;;;;;;;;6261970;28;20610;-82
2023/03/07 10:06:16;;;;;;;0.77;0.77;;;;;;;;;;6262306;28;20302;-82
2023/03/07 10:09:23;;;;;;;0.80;0.80;;;;;;;;;;6262991;28;20299;-82
2023/03/07 10:12:37;;;;;;;8.70;0.90;;;;;;;;;;6259704;28;20303;-82
2023/03/07 10:15:48;;;;;;;7.80;0.90;;;;;;;;;;6261837;28;20352;-83
2023/03/07 10:19:05;;;;;;;0.70;0.70;;;;;;;;;;6260709;28;20298;-83
2023/03/07 10:22:17;;;;;;;5.83;0.60;;;;;;;;;;6264329;28;20291;-84
2023/03/07 10:25:26;;;;;;;1.17;0.70;;;;;;;;;;6261396;28;20297;-83
2023/03/07 10:28:32;;;;;;;2.03;0.83;;;;;;;;;;6261353;28;20371;-82
2023/03/07 10:31:41;;;;;;;4.83;1.37;;;;;;;;;;6261660;28;20287;-84
2023/03/07 10:34:47;;;;;;;2.67;1.00;;;;;;;;;;6260820;28;20298;-83
2023/03/07 10:37:55;;;;;;;3.00;1.13;;;;;;;;;;6259858;28;20299;-83
2023/03/07 10:41:02;;;;;;;1.13;0.83;;;;;;;;;;6261673;28;20294;-83
2023/03/07 10:44:12;;;;;;;0.90;0.90;;;;;;;;;;6261458;28;20304;-82
2023/03/07 10:47:22;;;;;;;1.10;1.00;;;;;;;;;;6260851;28;20295;-83
2023/03/07 10:50:36;;;;;;;0.93;0.93;;;;;;;;;;6251688;28;20296;-84
2023/03/07 10:53:41;;;;;;;2.47;1.00;;;;;;;;;;6247301;28;20615;-83
2023/03/07 10:57:05;;;;;;;3.30;0.90;;;;;;;;;;6261343;28;20287;-81
2023/03/07 11:00:17;;;;;;;2.80;1.40;;;;;;;;;;6259440;28;20299;-82
2023/03/07 11:03:27;;;;;;;5.30;1.00;;;;;;;;;;6260356;28;20299;-83
2023/03/07 11:06:39;;;;;;;6.77;1.20;;;;;;;;;;6260666;28;20288;-83
2023/03/07 11:09:47;;;;;;;3.20;0.93;;;;;;;;;;6258322;28;20298;-81
2023/03/07 11:12:52;;;;;;;1.90;1.07;;;;;;;;;;6260793;28;20321;-83
2023/03/07 11:16:16;;;;;;;1.03;0.80;;;;;;;;;;6259747;28;20570;-83
2023/03/07 11:19:33;;;;;;;0.80;0.80;;;;;;;;;;6258160;28;20295;-83
2023/03/07 11:22:38;;;;;;;0.80;0.80;;;;;;;;;;6259745;28;20492;-83
2023/03/07 11:25:44;;;;;;;1.70;0.80;;;;;;;;;;6258880;28;20326;-84
2023/03/07 11:28:49;;;;;;;3.40;0.83;;;;;;;;;;6259563;28;20560;-82
2023/03/07 11:32:03;;;;;;;1.00;0.90;;;;;;;;;;6260582;28;20282;-83
2023/03/07 11:35:15;;;;;;;0.90;0.90;;;;;;;;;;6263286;28;20302;-84
2023/03/07 11:39:05;;;;;;;0.73;0.73;;;;;;;;;;6254811;28;20312;-83
2023/03/07 11:42:17;;;;;;;0.77;0.77;;;;;;;;;;6263942;28;20299;-83
2023/03/07 11:45:30;;;;;;;1.00;0.83;;;;;;;;;;6264578;28;20316;-82
2023/03/07 11:48:53;;;;;;;7.60;1.40;;;;;;;;;;6262465;28;20303;-83
2023/03/07 11:52:08;;;;;;;0.90;0.90;;;;;;;;;;6260730;28;20413;-83
2023/03/07 11:55:24;;;;;;;1.17;1.00;;;;;;;;;;6260223;28;20433;-84
2023/03/07 11:58:41;;;;;;;1.70;0.90;;;;;;;;;;6257915;28;20294;-84
2023/03/07 12:01:54;;;;;;;1.27;0.90;;;;;;;;;;6260668;28;20290;-82
2023/03/07 12:05:19;;;;;;;1.20;1.10;;;;;;;;;;6213477;28;20298;-82
2023/03/07 12:08:40;;;;;;;0.70;0.70;;;;;;;;;;6215144;28;20301;-83
2023/03/07 12:11:57;;;;;;;2.53;0.73;;;;;;;;;;6212192;28;20297;-83
2023/03/07 12:15:07;;;;;;;3.40;0.97;;;;;;;;;;6211628;28;20297;-83
2023/03/07 12:18:35;;;;;;;0.70;0.70;;;;;;;;;;6211060;28;20304;-82
2023/03/07 12:22:06;;;;;;;2.67;0.80;;;;;;;;;;6211464;28;20288;-82
2023/03/07 12:25:23;;;;;;;3.00;0.77;;;;;;;;;;6210645;28;20314;-84
2023/03/07 12:28:30;;;;;;;1.13;0.80;;;;;;;;;;6208225;28;20305;-82
2023/03/07 12:31:37;;;;;;;4.93;1.00;;;;;;;;;;6211470;28;20269;-84
2023/03/07 12:34:46;;;;;;;0.77;0.77;;;;;;;;;;6208844;28;20301;-84
2023/03/07 12:37:54;;;;;;;1.87;0.97;;;;;;;;;;6210775;28;20296;-84
2023/03/07 12:41:04;;;;;;;0.90;0.90;;;;;;;;;;6215471;28;20482;-83
2023/03/07 12:44:15;;;;;;;2.50;1.10;;;;;;;;;;6213935;28;20303;-82
2023/03/07 12:47:25;;;;;;;1.73;1.03;;;;;;;;;;6216176;28;20299;-84
2023/03/07 12:50:37;;;;;;;1.00;1.00;;;;;;;;;;6215852;28;20300;-84
2023/03/07 12:53:46;;;;;;;0.90;0.90;;;;;;;;;;6215585;28;20435;-83
2023/03/07 12:56:57;;;;;;;1.07;1.07;;;;;;;;;;6214826;28;20575;-83
2023/03/07 13:00:09;;;;;;;0.90;0.90;;;;;;;;;;6215014;28;20477;-83
2023/03/07 13:03:22;;;;;;;0.80;0.80;;;;;;;;;;6236125;28;20291;-83
2023/03/07 13:06:27;;;;;;;2.73;0.97;;;;;;;;;;6264219;28;20296;-83
2023/03/07 13:09:33;;;;;;;1.27;1.10;;;;;;;;;;6262887;28;20291;-84
2023/03/07 13:12:40;;;;;;;3.87;1.00;;;;;;;;;;6260159;28;20285;-82
2023/03/07 13:16:02;;;;;;;0.83;0.83;;;;;;;;;;6263622;28;20298;-83
2023/03/07 13:19:51;;;;;;;5.60;1.10;;;;;;;;;;6263793;28;20304;-83
2023/03/07 13:23:00;;;;;;;1.00;1.00;;;;;;;;;;6262653;28;20446;-83
2023/03/07 13:26:13;;;;;;;1.00;1.00;;;;;;;;;;6263491;28;20298;-82
2023/03/07 13:30:00;;;;;;;0.80;0.80;;;;;;;;;;6263799;28;20302;-82
2023/03/07 13:33:25;;;;;;;1.33;0.83;;;;;;;;;;6258341;28;20294;-84
2023/03/07 13:36:33;;;;;;;1.00;1.00;;;;;;;;;;6263780;28;20296;-83
2023/03/07 13:39:39;;;;;;;2.83;0.80;;;;;;;;;;6263622;28;20299;-85
2023/03/07 13:42:46;;;;;;;2.50;1.07;;;;;;;;;;6262549;28;20297;-83
2023/03/07 13:45:53;;;;;;;2.83;1.10;;;;;;;;;;6263281;28;20295;-83
2023/03/07 13:49:00;;;;;;;2.30;0.90;;;;;;;;;;6263425;28;20296;-83
2023/03/07 13:52:25;;;;;;;0.90;0.90;;;;;;;;;;6263191;28;20460;-84
2023/03/07 13:55:38;;;;;;;0.80;0.80;;;;;;;;;;6255925;28;20302;-83
2023/03/07 13:58:47;;;;;;;6.70;0.90;;;;;;;;;;6262785;28;20296;-83
2023/03/07 14:01:56;;;;;;;0.90;0.90;;;;;;;;;;6263515;28;20364;-82
2023/03/07 14:05:03;;;;;;;1.97;1.00;;;;;;;;;;6262900;28;20290;-83
2023/03/07 14:08:12;;;;;;;0.90;0.90;;;;;;;;;;6262807;28;20495;-84
2023/03/07 14:11:23;;;;;;;0.83;0.83;;;;;;;;;;6259572;28;20307;-83
2023/03/07 14:14:41;;;;;;;0.90;0.90;;;;;;;;;;6263090;28;20293;-83
2023/03/07 14:17:55;;;;;;;2.37;1.00;;;;;;;;;;6262929;28;20301;-83
2023/03/07 14:21:08;;;;;;;1.90;1.20;;;;;;;;;;6263403;28;20325;-84
2023/03/07 14:24:39;;;;;;;0.90;0.90;;;;;;;;;;6261893;28;20481;-84
2023/03/07 14:27:57;;;;;;;0.80;0.80;;;;;;;;;;6263395;28;20297;-82
2023/03/07 14:31:04;;;;;;;1.10;1.10;;;;;;;;;;6245368;28;20301;-81
2023/03/07 14:34:22;;;;;;;0.90;0.90;;;;;;;;;;6262916;28;20309;-84
2023/03/07 14:37:28;;;;;;;0.90;0.90;;;;;;;;;;6261062;28;20297;-83
2023/03/07 14:40:41;;;;;;;1.00;1.00;;;;;;;;;;6262323;28;20390;-84
2023/03/07 14:43:55;;;;;;;1.00;1.00;;;;;;;;;;6261080;28;20285;-83
2023/03/07 14:47:06;;;;;;;0.93;0.93;;;;;;;;;;6261303;28;20291;-82
2023/03/07 14:50:17;;;;;;;1.10;1.10;;;;;;;;;;6262809;28;20627;-86
2023/03/07 14:53:25;;;;;;;1.10;1.10;;;;;;;;;;6258996;28;20302;-83
2023/03/07 14:56:32;;;;;;;3.10;1.23;;;;;;;;;;6262644;28;20311;-84
2023/03/07 14:59:38;;;;;;;1.20;1.20;;;;;;;;;;6261912;28;20260;-84
2023/03/07 15:02:47;;;;;;;2.33;2.23;;;;;;;;;;6260410;28;20303;-83
2023/03/07 15:05:56;;;;;;;2.33;1.40;;;;;;;;;;6262388;28;20301;-84
2023/03/07 15:09:04;;;;;;;3.03;1.30;;;;;;;;;;6261876;28;20293;-82
2023/03/07 15:12:14;;;;;;;1.10;1.10;;;;;;;;;;6258635;28;20590;-83
2023/03/07 15:15:28;;;;;;;1.17;1.17;;;;;;;;;;6261318;28;20314;-82
2023/03/07 15:18:35;;;;;;;4.20;1.80;;;;;;;;;;6261221;28;20461;-83
2023/03/07 15:21:45;;;;;;;3.40;1.50;;;;;;;;;;6261793;28;20292;-83
2023/03/07 15:24:51;;;;;;;1.20;1.20;;;;;;;;;;6261895;28;20294;-82
2023/03/07 15:28:01;;;;;;;3.27;1.30;;;;;;;;;;6261139;28;20590;-83
2023/03/07 15:31:12;;;;;;;1.97;1.60;;;;;;;;;;6262137;28;20581;-82
2023/03/07 15:34:25;;;;;;;1.63;1.63;;;;;;;;;;6260497;28;20306;-83
2023/03/07 15:37:36;;;;;;;1.13;1.13;;;;;;;;;;6260868;28;20291;-83
2023/03/07 15:40:43;;;;;;;3.50;1.50;;;;;;;;;;6261099;28;20294;-83
2023/03/07 15:44:04;;;;;;;1.40;1.40;;;;;;;;;;6261271;28;20295;-82
2023/03/07 15:47:16;;;;;;;1.60;1.50;;;;;;;;;;6261498;28;20284;-84
2023/03/07 15:50:24;;;;;;;3.43;1.70;;;;;;;;;;6260566;28;20296;-84
2023/03/07 15:53:32;;;;;;;5.13;1.50;;;;;;;;;;6261188;28;20295;-83
2023/03/07 15:56:39;;;;;;;1.47;1.47;;;;;;;;;;6261017;28;20296;-83
2023/03/07 15:59:50;;;;;;;1.57;1.53;;;;;;;;;;6259183;28;20297;-84
2023/03/07 16:03:20;;;;;;;1.60;1.50;;;;;;;;;;6260672;28;20296;-83
2023/03/07 16:06:33;;;;;;;1.37;1.37;;;;;;;;;;6259441;28;20293;-84
2023/03/07 16:09:43;;;;;;;1.30;1.30;;;;;;;;;;6258808;28;20301;-84
2023/03/07 16:12:49;;;;;;;1.50;1.10;;;;;;;;;;6259936;28;20297;-84
2023/03/07 16:16:07;;;;;;;1.50;1.50;;;;;;;;;;6260368;28;20301;-84
2023/03/07 16:19:14;;;;;;;3.07;1.53;;;;;;;;;;6260024;28;20298;-83
2023/03/07 16:22:20;;;;;;;1.50;1.50;;;;;;;;;;6258239;28;20308;-82
2023/03/07 16:25:30;;;;;;;1.93;1.80;;;;;;;;;;6260162;28;20260;-83
2023/03/07 16:28:36;;;;;;;1.40;1.40;;;;;;;;;;6259767;28;20299;-84
2023/03/07 16:31:42;;;;;;;1.40;1.40;;;;;;;;;;6260664;28;20305;-83
2023/03/07 16:34:48;;;;;;;1.67;1.50;;;;;;;;;;6258986;28;20351;-85
2023/03/07 16:37:54;;;;;;;1.63;1.57;;;;;;;;;;6261604;28;20487;-83
2023/03/07 16:41:04;;;;;;;1.73;1.63;;;;;;;;;;6259782;28;20294;-83
2023/03/07 16:44:15;;;;;;;2.07;1.30;;;;;;;;;;6258638;28;20304;-83
2023/03/07 16:47:21;;;;;;;1.50;1.40;;;;;;;;;;6260100;28;20306;-84
2023/03/07 16:50:28;;;;;;;1.10;1.10;;;;;;;;;;6259773;28;20301;-82
2023/03/07 16:53:33;;;;;;;3.27;1.80;;;;;;;;;;6260219;28;20466;-83
2023/03/07 16:56:43;;;;;;;1.70;1.27;;;;;;;;;;6259925;28;20291;-82
2023/03/07 16:59:49;;;;;;;1.50;1.50;;;;;;;;;;6259569;28;20284;-84
2023/03/07 17:02:55;;;;;;;3.77;2.10;;;;;;;;;;6259304;28;20481;-84
2023/03/07 17:06:01;;;;;;;1.27;1.27;;;;;;;;;;6260361;28;20293;-82
2023/03/07 17:09:08;;;;;;;1.57;1.47;;;;;;;;;;6259803;28;20300;-84
2023/03/07 17:12:15;;;;;;;3.03;0.80;;;;;;;;;;6256264;28;20305;-79
2023/03/07 17:15:25;;;;;;;2.27;1.77;;;;;;;;;;6257583;28;20299;-83
2023/03/07 17:18:32;;;;;;;2.20;2.00;;;;;;;;;;6258978;28;20306;-82
2023/03/07 17:21:39;;;;;;;1.50;1.50;;;;;;;;;;6259614;28;20297;-83
2023/03/07 17:24:45;;;;;;;2.00;1.40;;;;;;;;;;6259116;28;20297;-81
2023/03/07 17:27:54;;;;;;;2.53;1.33;;;;;;;;;;6262201;28;20309;-83
2023/03/07 17:30:59;;;;;;;1.60;1.50;;;;;;;;;;6264647;28;20296;-84
2023/03/07 17:34:05;;;;;;;0.90;0.90;;;;;;;;;;6246201;28;20313;-83
2023/03/07 17:37:13;;;;;;;1.07;1.03;;;;;;;;;;6264621;28;20303;-81
2023/03/07 17:40:19;;;;;;;1.43;1.40;;;;;;;;;;6265315;28;20394;-83
2023/03/07 17:43:26;;;;;;;2.40;1.80;;;;;;;;;;6263376;28;20509;-82
2023/03/07 17:46:31;;;;;;;1.50;1.33;;;;;;;;;;6262064;28;20366;-81
2023/03/07 17:49:38;;;;;;;1.70;1.60;;;;;;;;;;6263278;28;20606;-84
2023/03/07 17:52:44;;;;;;;3.07;2.07;;;;;;;;;;6262844;28;20480;-81
2023/03/07 17:55:50;;;;;;;2.43;1.67;;;;;;;;;;6262202;28;20295;-81
2023/03/07 17:59:00;;;;;;;1.60;1.50;;;;;;;;;;6262759;28;20289;-84
2023/03/07 18:02:23;;;;;;;1.60;1.53;;;;;;;;;;6251387;28;20299;-82
2023/03/07 18:05:29;;;;;;;1.10;1.10;;;;;;;;;;6268743;28;20351;-84
2023/03/07 18:08:35;;;;;;;1.83;1.83;;;;;;;;;;6261930;28;20363;-82
2023/03/07 18:11:42;;;;;;;2.60;1.73;;;;;;;;;;6259719;28;20293;-83
2023/03/07 18:14:49;;;;;;;1.97;1.97;;;;;;;;;;6263162;28;20299;-83
2023/03/07 18:17:54;;;;;;;2.13;2.13;;;;;;;;;;6261271;28;20307;-82
2023/03/07 18:21:00;;;;;;;1.60;1.50;;;;;;;;;;6261585;28;20300;-82
2023/03/07 18:24:18;;;;;;;3.43;3.17;;;;;;;;;;6262596;28;20493;-81
2023/03/07 18:27:25;;;;;;;4.20;3.37;;;;;;;;;;6261990;28;20297;-84
2023/03/07 18:30:33;;;;;;;4.23;2.63;;;;;;;;;;6262630;28;20293;-82
2023/03/07 18:33:40;;;;;;;3.17;2.97;;;;;;;;;;6262246;28;20301;-82
2023/03/07 18:36:46;;;;;;;2.80;2.60;;;;;;;;;;6263967;28;20302;-80
2023/03/07 18:39:52;;;;;;;2.77;2.50;;;;;;;;;;6265545;28;20292;-79
2023/03/07 18:43:01;;;;;;;7.37;3.17;;;;;;;;;;6265862;28;20390;-83
2023/03/07 18:46:10;;;;;;;3.40;3.00;;;;;;;;;;6264060;28;20300;-84
2023/03/07 18:49:16;;;;;;;4.53;3.80;;;;;;;;;;6262156;28;20310;-80
2023/03/07 18:52:22;;;;;;;4.73;3.20;;;;;;;;;;6262651;28;20283;-83
2023/03/07 18:55:31;;;;;;;11.37;3.30;;;;;;;;;;6262666;28;20301;-82